Aeroporto :







RITROVATECI SU...

 
LOGIN :

Iscrizione | Disclaimer

   EN    FR    IT 

 









Sommario :    VFR   VFR Marginale   IFR   IFR Intensivo   IFR Molto Intensivo
Visibilità : 
Base nubi : 
>= 8 km
>= 3000ft
5 / 8 km
1000 / 3000 ft
1500m / 5 km
500 / 1000 ft
800 / 1500m
200 / 500 ft
< 800m
< 200 ft
Simboli :   Temporali  Nebbia  Neve Forte  Precipitazioni Forti  Vento > 20 kt






- Altitudine del aeroporto : 1825 ft


K8B0 - Steven A. Bean Municipal

ULTIMO METAR :
  • 182055Z AUTO 18008KT 160V220 1 3/4SM -SN SCT009 BKN014 OVC044 M07/M10 A3008 RMK AO2

METARs OBSOLETI :
  • 182035Z AUTO 18004KT 1SM -SN OVC009 M07/M10 A3008 RMK AO2
  • 182015Z AUTO 18003KT 1 1/4SM -SN OVC009 M07/M10 A3010 RMK AO2
  • 181955Z AUTO 18007KT 150V210 3/4SM -SN OVC009 M08/M10 A3011 RMK AO2
  • 181935Z AUTO 00000KT 1SM -SN OVC007 M08/M10 A3013 RMK AO2
  • 181915Z AUTO 23003KT 1SM -SN OVC007 M08/M10 A3015 RMK AO2
  • 181855Z AUTO 00000KT 3/4SM -SN OVC007 M08/M10 A3016 RMK AO2
  • 181835Z AUTO 00000KT 3/4SM -SN OVC005 M09/M11 A3017 RMK AO2
  • 181815Z AUTO 21003KT 3/4SM -SN OVC005 M08/M11 A3020 RMK AO2

TAF N/A



MetMap, La meteo Aeronautica in un colpo d'occhio ! - Copyright ORBIFLY Dicembre 2007 - Disclaimer

ORBIFLY MET'MAP TEAM :

Programmazione e sviluppo : Alexandra Zaïnal
Concezione : Baudouin d'Aumeries
Aiuto per la programmazione : Marc-Olivier Méhu
Supporto tecnico e logistico : Manuel Goepfert
Aiuto per la traduzione : Arnaldo La Scala

Contatto : metmap@orbifly.com




FONTI E CREDITI :

   NOAA